createdAt,value
2022-12-23T00:01:00.849Z,9.87
2022-12-23T00:03:29.398Z,8.47
2022-12-23T00:05:56.807Z,8.70
2022-12-23T00:08:24.148Z,9.10
2022-12-23T00:10:52.270Z,11.17
2022-12-23T00:13:38.452Z,6.57
2022-12-23T00:16:12.760Z,6.03
2022-12-23T00:18:40.315Z,6.77
2022-12-23T00:21:09.482Z,8.03
2022-12-23T00:23:38.382Z,8.50
2022-12-23T00:26:05.718Z,8.43
2022-12-23T00:28:32.949Z,7.93
2022-12-23T00:31:02.803Z,7.20
2022-12-23T00:33:40.344Z,9.93
2022-12-23T00:36:24.006Z,12.53
2022-12-23T00:39:10.290Z,8.77
2022-12-23T00:41:56.387Z,9.43
2022-12-23T00:44:23.658Z,12.83
2022-12-23T00:46:51.187Z,10.70
2022-12-23T00:49:37.688Z,6.03
2022-12-23T00:52:05.760Z,6.50
2022-12-23T00:54:32.960Z,10.60
2022-12-23T00:57:00.581Z,8.03
2022-12-23T00:59:27.861Z,10.77
2022-12-23T01:02:13.623Z,8.67
2022-12-23T01:04:59.631Z,7.23
2022-12-23T01:07:26.809Z,9.20
2022-12-23T01:09:53.923Z,9.87
2022-12-23T01:12:21.221Z,7.23
2022-12-23T01:14:48.364Z,9.53
2022-12-23T01:17:15.623Z,6.27
2022-12-23T01:19:42.826Z,9.90
2022-12-23T01:22:10.059Z,5.03
2022-12-23T01:24:37.263Z,9.20
2022-12-23T01:27:04.461Z,5.90
2022-12-23T01:29:31.712Z,7.40
2022-12-23T01:31:58.998Z,7.67
2022-12-23T01:34:29.804Z,6.97
2022-12-23T01:37:01.627Z,5.40
2022-12-23T01:39:28.792Z,6.10
2022-12-23T01:42:14.869Z,4.77
2022-12-23T01:44:50.894Z,6.73
2022-12-23T01:47:18.036Z,4.60
2022-12-23T01:49:45.205Z,8.30
2022-12-23T01:52:12.484Z,5.30
2022-12-23T01:54:39.856Z,5.60
2022-12-23T01:57:07.322Z,5.13
2022-12-23T01:59:53.002Z,8.73
2022-12-23T02:02:40.126Z,5.87
2022-12-23T02:05:07.963Z,6.43
2022-12-23T02:07:54.262Z,8.60
2022-12-23T02:10:22.126Z,5.00
2022-12-23T02:12:49.243Z,7.17
2022-12-23T02:15:35.239Z,7.87
2022-12-23T02:18:08.148Z,6.33
2022-12-23T02:20:44.295Z,7.87
2022-12-23T02:23:17.340Z,7.03
2022-12-23T02:25:50.403Z,4.33
2022-12-23T02:28:20.510Z,8.43
2022-12-23T02:30:49.540Z,5.33
2022-12-23T02:33:39.390Z,6.07
2022-12-23T02:36:15.279Z,2.30
2022-12-23T02:38:57.743Z,5.67
2022-12-23T02:41:51.299Z,4.83
2022-12-23T02:44:24.684Z,5.80
2022-12-23T02:47:18.228Z,6.13
2022-12-23T02:49:48.403Z,5.90
2022-12-23T02:52:17.151Z,4.40
2022-12-23T02:54:51.026Z,6.03
2022-12-23T02:57:20.720Z,5.17
2022-12-23T02:59:49.062Z,5.33
2022-12-23T03:02:16.360Z,5.07
2022-12-23T03:04:43.615Z,5.80
2022-12-23T03:07:18.782Z,4.63
2022-12-23T03:10:04.802Z,5.63
2022-12-23T03:12:31.936Z,4.53
2022-12-23T03:15:28.330Z,5.53
2022-12-23T03:17:55.571Z,4.90
2022-12-23T03:20:22.668Z,3.97
2022-12-23T03:23:06.905Z,4.70
2022-12-23T03:25:41.176Z,3.50
2022-12-23T03:28:11.323Z,5.93
2022-12-23T03:30:41.135Z,3.13
2022-12-23T03:33:16.278Z,6.87
2022-12-23T03:35:46.117Z,4.50
2022-12-23T03:38:14.300Z,4.27
2022-12-23T03:40:46.835Z,5.23
2022-12-23T03:43:23.009Z,6.53
2022-12-23T03:45:54.414Z,3.83
2022-12-23T03:48:23.968Z,2.77
2022-12-23T03:50:53.122Z,3.53
2022-12-23T03:53:28.930Z,4.10
2022-12-23T03:55:58.087Z,3.57
2022-12-23T03:58:34.380Z,3.70
2022-12-23T04:01:06.563Z,4.97
2022-12-23T04:03:38.166Z,5.20
2022-12-23T04:06:06.979Z,4.77
2022-12-23T04:08:36.511Z,6.30
2022-12-23T04:11:03.969Z,5.60
2022-12-23T04:13:31.665Z,3.33
2022-12-23T04:15:59.836Z,3.77
2022-12-23T04:18:27.403Z,2.73
2022-12-23T04:20:54.557Z,1.97
2022-12-23T04:23:21.696Z,1.87
2022-12-23T04:25:48.847Z,3.17
2022-12-23T04:28:16.287Z,3.67
2022-12-23T04:30:43.508Z,3.67
2022-12-23T04:33:13.688Z,4.10
2022-12-23T04:35:40.819Z,3.03
2022-12-23T04:38:08.222Z,4.23
2022-12-23T04:40:35.363Z,3.53
2022-12-23T04:43:02.557Z,3.70
2022-12-23T04:45:29.728Z,4.57
2022-12-23T04:47:57.589Z,4.87
2022-12-23T04:50:24.744Z,4.77
2022-12-23T04:52:51.939Z,4.60
2022-12-23T04:55:19.073Z,5.13
2022-12-23T04:57:46.236Z,6.00
2022-12-23T05:00:13.696Z,5.67
2022-12-23T05:02:40.865Z,5.00
2022-12-23T05:05:08.273Z,5.37
2022-12-23T05:07:35.449Z,6.73
2022-12-23T05:10:02.617Z,4.77
2022-12-23T05:12:30.321Z,5.07
2022-12-23T05:14:57.579Z,4.50
2022-12-23T05:17:24.721Z,4.93
2022-12-23T05:19:51.892Z,5.77
2022-12-23T05:22:19.208Z,4.33
2022-12-23T05:24:46.344Z,4.47
2022-12-23T05:27:13.515Z,4.27
2022-12-23T05:29:40.688Z,4.23
2022-12-23T05:32:08.283Z,4.70
2022-12-23T05:34:35.532Z,5.97
2022-12-23T05:37:02.777Z,5.00
2022-12-23T05:39:29.958Z,5.40
2022-12-23T05:41:57.107Z,5.13
2022-12-23T05:44:24.347Z,4.77
2022-12-23T05:46:51.458Z,5.40
2022-12-23T05:49:18.640Z,5.70
2022-12-23T05:51:45.838Z,5.80
2022-12-23T05:54:13.050Z,5.80
2022-12-23T05:56:40.205Z,5.67
2022-12-23T05:59:08.288Z,5.57
2022-12-23T06:01:35.517Z,5.07
2022-12-23T06:04:03.015Z,4.77
2022-12-23T06:06:30.357Z,6.07
2022-12-23T06:08:59.780Z,4.83
2022-12-23T06:11:27.537Z,5.40
2022-12-23T06:13:54.758Z,5.13
2022-12-23T06:16:22.214Z,5.23
2022-12-23T06:18:49.450Z,5.37
2022-12-23T06:21:16.703Z,5.43
2022-12-23T06:23:43.868Z,5.40
2022-12-23T06:26:11.020Z,4.50
2022-12-23T06:28:38.164Z,4.63
2022-12-23T06:31:05.441Z,4.53
2022-12-23T06:33:32.608Z,4.10
2022-12-23T06:35:59.777Z,4.50
2022-12-23T06:38:26.988Z,3.90
2022-12-23T06:40:54.165Z,3.60
2022-12-23T06:43:21.534Z,3.70
2022-12-23T06:45:49.559Z,3.10
2022-12-23T06:48:16.830Z,2.37
2022-12-23T06:50:44.328Z,2.57
2022-12-23T06:53:11.502Z,3.10
2022-12-23T06:55:38.741Z,2.63
2022-12-23T06:58:06.233Z,1.90
2022-12-23T07:00:33.366Z,1.57
2022-12-23T07:03:00.660Z,1.63
2022-12-23T07:05:34.935Z,1.33
2022-12-23T07:08:04.041Z,1.97
2022-12-23T07:10:31.211Z,2.37
2022-12-23T07:12:58.340Z,3.13
2022-12-23T07:15:25.464Z,2.93
2022-12-23T07:17:52.664Z,3.33
2022-12-23T07:20:19.975Z,2.87
2022-12-23T07:22:47.101Z,2.90
2022-12-23T07:25:14.394Z,3.73
2022-12-23T07:27:41.862Z,4.83
2022-12-23T07:30:09.312Z,3.17
2022-12-23T07:32:36.552Z,2.47
2022-12-23T07:35:03.898Z,3.43
2022-12-23T07:37:31.074Z,4.33
2022-12-23T07:40:00.025Z,3.90
2022-12-23T07:42:46.645Z,3.27
2022-12-23T07:45:14.211Z,3.67
2022-12-23T07:47:41.335Z,3.70
2022-12-23T07:50:08.686Z,3.37
2022-12-23T07:52:35.935Z,3.27
2022-12-23T07:55:03.096Z,3.87
2022-12-23T07:57:30.228Z,3.53
2022-12-23T07:59:58.062Z,3.10
2022-12-23T08:02:25.734Z,3.20
2022-12-23T08:04:53.022Z,2.00
2022-12-23T08:07:20.218Z,2.83
2022-12-23T08:09:47.342Z,3.60
2022-12-23T08:12:14.470Z,2.73
2022-12-23T08:14:41.630Z,2.63
2022-12-23T08:17:09.146Z,2.80
2022-12-23T08:19:36.362Z,2.63
2022-12-23T08:22:03.626Z,3.07
2022-12-23T08:24:30.792Z,2.40
2022-12-23T08:26:58.336Z,3.77
2022-12-23T08:29:25.575Z,3.80
2022-12-23T08:31:54.087Z,2.03
2022-12-23T08:34:21.250Z,2.60
2022-12-23T08:36:48.443Z,3.47
2022-12-23T08:39:15.622Z,2.23
2022-12-23T08:41:45.051Z,1.77
2022-12-23T08:44:12.511Z,5.83
2022-12-23T08:46:40.261Z,2.73
2022-12-23T08:49:07.942Z,1.80
2022-12-23T08:51:35.657Z,2.23
2022-12-23T08:54:03.194Z,1.97
2022-12-23T08:56:34.764Z,1.60
2022-12-23T08:59:02.349Z,2.80
2022-12-23T09:01:30.647Z,2.73
2022-12-23T09:03:57.981Z,2.60
2022-12-23T09:06:29.855Z,2.13
2022-12-23T09:08:57.887Z,3.50
2022-12-23T09:11:26.310Z,2.00
2022-12-23T09:13:53.469Z,3.63
2022-12-23T09:16:21.104Z,4.03
2022-12-23T09:18:48.388Z,2.77
2022-12-23T09:21:16.698Z,2.40
2022-12-23T09:23:43.846Z,2.57
2022-12-23T09:26:11.385Z,2.90
2022-12-23T09:28:40.237Z,4.97
2022-12-23T09:31:08.892Z,3.47
2022-12-23T09:33:36.340Z,2.27
2022-12-23T09:36:04.193Z,2.27
2022-12-23T09:38:31.627Z,3.87
2022-12-23T09:41:10.876Z,2.70
2022-12-23T09:43:47.446Z,1.60
2022-12-23T09:46:17.802Z,3.27
2022-12-23T09:48:49.438Z,3.67
2022-12-23T09:51:18.131Z,3.20
2022-12-23T10:02:17.143Z,3.37
2022-12-23T10:04:58.542Z,1.90
2022-12-23T10:07:26.266Z,2.27
2022-12-23T10:09:54.802Z,4.60
2022-12-23T10:12:37.359Z,1.57
2022-12-23T10:15:17.123Z,3.17
2022-12-23T10:17:45.188Z,2.53
2022-12-23T10:20:28.552Z,3.63
2022-12-23T10:22:56.135Z,2.07
2022-12-23T10:25:33.196Z,5.97
2022-12-23T10:28:00.340Z,2.73
2022-12-23T10:33:22.734Z,2.37
2022-12-23T10:35:56.266Z,1.47
2022-12-23T10:38:41.496Z,1.67
2022-12-23T10:41:23.697Z,1.93
2022-12-23T10:43:56.911Z,2.60
2022-12-23T10:46:37.842Z,3.37
2022-12-23T10:49:23.814Z,1.87
2022-12-23T10:51:53.961Z,2.20
2022-12-23T10:54:33.210Z,1.57
2022-12-23T10:57:00.772Z,2.67
2022-12-23T10:59:29.457Z,1.43
2022-12-23T11:02:14.930Z,2.40
2022-12-23T11:04:43.953Z,1.13
2022-12-23T11:07:46.049Z,1.60
2022-12-23T11:10:04.675Z,1.97
2022-12-23T11:12:43.107Z,2.27
2022-12-23T11:15:28.553Z,1.17
2022-12-23T11:18:17.158Z,1.57
2022-12-23T11:20:45.655Z,2.53
2022-12-23T11:23:26.608Z,0.97
2022-12-23T11:26:20.214Z,1.87
2022-12-23T11:28:49.861Z,1.10
2022-12-23T11:31:24.915Z,1.30
2022-12-23T11:33:58.158Z,1.23
2022-12-23T11:36:27.742Z,2.53
2022-12-23T11:39:00.756Z,1.40
2022-12-23T11:41:29.904Z,2.13
2022-12-23T11:43:59.974Z,0.87
2022-12-23T11:46:28.680Z,2.00
2022-12-23T11:49:16.127Z,1.13
2022-12-23T11:51:43.931Z,0.87
2022-12-23T11:54:18.738Z,1.37
2022-12-23T11:56:48.857Z,2.50
2022-12-23T11:59:28.278Z,4.37
2022-12-23T12:01:57.215Z,1.73
2022-12-23T12:04:25.585Z,0.70
2022-12-23T12:06:56.564Z,1.13
2022-12-23T12:09:24.642Z,1.60
2022-12-23T12:11:58.257Z,1.20
2022-12-23T12:14:32.374Z,1.53
2022-12-23T12:17:04.631Z,2.37
2022-12-23T12:19:31.847Z,1.73
2022-12-23T12:22:02.899Z,1.43
2022-12-23T12:24:33.816Z,2.40
2022-12-23T12:27:03.092Z,0.90
2022-12-23T12:29:30.225Z,1.03
2022-12-23T12:31:58.642Z,1.00
2022-12-23T12:34:34.782Z,2.13
2022-12-23T12:37:13.839Z,1.67
2022-12-23T12:39:43.269Z,1.70
2022-12-23T12:42:16.431Z,2.53
2022-12-23T12:44:46.725Z,2.20
2022-12-23T12:47:44.539Z,1.40
2022-12-23T12:50:07.372Z,1.90
2022-12-23T12:52:40.029Z,2.70
2022-12-23T12:55:07.357Z,1.00
2022-12-23T12:57:35.850Z,1.07
2022-12-23T13:00:06.976Z,2.27
2022-12-23T13:02:37.489Z,2.40
2022-12-23T13:05:23.487Z,3.50
2022-12-23T13:08:02.747Z,2.10
2022-12-23T13:10:48.441Z,2.00
2022-12-23T13:13:18.577Z,1.90
2022-12-23T13:15:45.732Z,1.67
2022-12-23T13:18:25.321Z,1.73
2022-12-23T13:21:00.544Z,3.33
2022-12-23T13:23:44.760Z,2.47
2022-12-23T13:26:18.272Z,1.57
2022-12-23T13:28:51.417Z,3.33
2022-12-23T13:31:41.812Z,1.13
2022-12-23T13:34:11.954Z,1.97
2022-12-23T13:36:47.784Z,3.50
2022-12-23T13:39:18.452Z,3.57
2022-12-23T13:41:47.673Z,2.40
2022-12-23T13:44:15.304Z,3.37
2022-12-23T13:47:01.209Z,2.07
2022-12-23T13:50:00.997Z,1.93
2022-12-23T13:52:28.106Z,1.63
2022-12-23T13:54:58.267Z,1.87
2022-12-23T13:57:28.549Z,1.87
2022-12-23T14:00:05.968Z,1.03
2022-12-23T14:02:36.720Z,2.23
2022-12-23T14:05:05.735Z,1.53
2022-12-23T14:07:33.920Z,2.97
2022-12-23T14:10:11.006Z,2.67
2022-12-23T14:12:41.581Z,2.17
2022-12-23T14:15:27.679Z,2.97
2022-12-23T14:18:04.847Z,1.40
2022-12-23T14:20:43.121Z,2.70
2022-12-23T14:23:29.187Z,2.03
2022-12-23T14:26:05.455Z,3.30
2022-12-23T14:28:35.603Z,2.43
2022-12-23T14:31:04.960Z,3.28
2022-12-23T14:33:34.213Z,4.10
2022-12-23T14:36:20.285Z,4.70
2022-12-23T14:39:06.397Z,4.80
2022-12-23T14:41:40.725Z,7.07
2022-12-23T14:44:19.183Z,3.27
2022-12-23T14:46:46.389Z,3.63
2022-12-23T14:49:40.924Z,2.73
2022-12-23T14:52:27.094Z,2.60
2022-12-23T14:55:21.061Z,2.47
2022-12-23T14:57:41.689Z,1.67
2022-12-23T15:00:10.550Z,3.70
2022-12-23T15:02:40.803Z,3.67
2022-12-23T15:05:09.194Z,2.90
2022-12-23T15:07:38.219Z,3.20
2022-12-23T15:10:07.254Z,3.03
2022-12-23T15:12:35.959Z,2.37
2022-12-23T15:15:07.545Z,3.60
2022-12-23T15:17:35.900Z,3.47
2022-12-23T15:20:08.809Z,5.23
2022-12-23T15:22:36.269Z,4.00
2022-12-23T15:25:04.837Z,4.90
2022-12-23T15:27:35.199Z,5.10
2022-12-23T15:30:02.470Z,3.47
2022-12-23T15:32:30.193Z,3.63
2022-12-23T15:35:01.741Z,3.53
2022-12-23T15:37:30.099Z,3.63
2022-12-23T15:40:06.163Z,4.40
2022-12-23T15:42:38.486Z,3.77
2022-12-23T15:45:27.038Z,2.60
2022-12-23T15:47:54.241Z,3.67
2022-12-23T15:50:21.429Z,3.53
2022-12-23T15:52:50.104Z,3.80
2022-12-23T15:55:29.267Z,5.33
2022-12-23T15:57:56.963Z,3.13
2022-12-23T16:00:25.679Z,3.13
2022-12-23T16:03:03.316Z,3.53
2022-12-23T16:05:34.844Z,5.10
2022-12-23T16:08:16.229Z,3.63
2022-12-23T16:10:44.624Z,3.53
2022-12-23T16:13:21.298Z,3.70
2022-12-23T16:15:48.565Z,6.17
2022-12-23T16:18:23.503Z,5.00
2022-12-23T16:20:53.517Z,4.77
2022-12-23T16:23:21.522Z,5.43
2022-12-23T16:25:50.903Z,5.00
2022-12-23T16:28:23.129Z,4.23
2022-12-23T16:30:55.113Z,3.83
2022-12-23T16:33:31.920Z,4.87
2022-12-23T16:36:14.728Z,5.77
2022-12-23T16:38:41.915Z,5.30
2022-12-23T16:41:09.122Z,5.17
2022-12-23T16:43:36.287Z,4.60
2022-12-23T16:46:03.626Z,5.20
2022-12-23T16:48:36.012Z,4.90
2022-12-23T16:51:05.096Z,5.93
2022-12-23T16:53:32.307Z,5.10
2022-12-23T16:56:01.039Z,4.53
2022-12-23T16:58:28.728Z,5.53
2022-12-23T17:00:56.443Z,4.73
2022-12-23T17:03:23.671Z,4.03
2022-12-23T17:05:50.868Z,4.03
2022-12-23T17:08:18.234Z,4.73
2022-12-23T17:10:45.859Z,4.60
2022-12-23T17:13:14.867Z,4.87
2022-12-23T17:15:42.025Z,5.47
2022-12-23T17:18:16.750Z,5.23
2022-12-23T17:20:48.025Z,4.67
2022-12-23T17:23:27.398Z,6.03
2022-12-23T17:25:54.906Z,4.93
2022-12-23T17:28:22.599Z,5.27
2022-12-23T17:30:54.249Z,5.60
2022-12-23T17:33:22.009Z,6.53
2022-12-23T17:35:49.266Z,4.27
2022-12-23T17:38:17.318Z,4.43
2022-12-23T17:40:46.068Z,5.17
2022-12-23T17:43:14.262Z,17.13
2022-12-23T17:45:41.834Z,13.20
2022-12-23T17:48:19.970Z,7.33
2022-12-23T17:50:48.667Z,8.53
2022-12-23T17:53:19.772Z,6.10
2022-12-23T17:55:47.218Z,5.90
2022-12-23T17:58:14.402Z,4.87
2022-12-23T18:00:42.096Z,5.20
2022-12-23T18:03:16.522Z,6.30
2022-12-23T18:05:43.663Z,4.03
2022-12-23T18:08:10.812Z,4.47
2022-12-23T18:10:40.731Z,4.37
2022-12-23T18:13:09.931Z,4.67
2022-12-23T18:15:38.765Z,6.67
2022-12-23T18:18:29.603Z,5.33
2022-12-23T18:21:00.473Z,4.63
2022-12-23T18:23:28.984Z,5.17
2022-12-23T18:25:56.765Z,5.00
2022-12-23T18:28:24.434Z,4.20
2022-12-23T18:30:52.222Z,5.87
2022-12-23T18:33:20.135Z,5.70
2022-12-23T18:35:48.572Z,6.07
2022-12-23T18:38:16.476Z,7.43
2022-12-23T18:40:44.016Z,7.00
2022-12-23T18:43:24.489Z,5.37
2022-12-23T18:45:53.550Z,6.13
2022-12-23T18:48:21.765Z,5.33
2022-12-23T18:50:49.043Z,5.87
2022-12-23T18:53:23.422Z,6.40
2022-12-23T18:55:51.550Z,6.87
2022-12-23T18:58:19.013Z,6.60
2022-12-23T19:00:46.697Z,8.10
2022-12-23T19:03:24.839Z,7.77
2022-12-23T19:05:52.847Z,8.97
2022-12-23T19:08:26.281Z,10.20
2022-12-23T19:10:55.416Z,11.53
2022-12-23T19:13:22.672Z,20.47
2022-12-23T19:15:50.014Z,8.60
2022-12-23T19:18:18.206Z,6.83
2022-12-23T19:20:46.339Z,6.17
2022-12-23T19:23:13.560Z,4.20
2022-12-23T19:25:41.911Z,5.47
2022-12-23T19:28:09.675Z,4.50
2022-12-23T19:30:37.243Z,6.33
2022-12-23T19:33:04.473Z,7.40
2022-12-23T19:35:31.731Z,5.53
2022-12-23T19:37:58.919Z,6.63
2022-12-23T19:40:26.108Z,5.90
2022-12-23T19:42:53.275Z,4.67
2022-12-23T19:45:20.468Z,6.00
2022-12-23T19:47:47.920Z,5.27
2022-12-23T19:50:15.186Z,6.27
2022-12-23T19:52:42.507Z,5.30
2022-12-23T19:55:10.256Z,6.87
2022-12-23T19:57:37.464Z,5.33
2022-12-23T20:00:05.025Z,7.27
2022-12-23T20:02:32.252Z,4.37
2022-12-23T20:04:59.698Z,4.40
2022-12-23T20:07:26.887Z,5.17
2022-12-23T20:09:54.047Z,5.47
2022-12-23T20:12:21.550Z,4.90
2022-12-23T20:14:48.755Z,5.43
2022-12-23T20:17:16.011Z,6.03
2022-12-23T20:19:46.049Z,6.83
2022-12-23T20:22:13.720Z,5.23
2022-12-23T20:24:41.098Z,5.87
2022-12-23T20:27:11.628Z,6.17
2022-12-23T20:29:40.378Z,6.83
2022-12-23T20:32:07.533Z,5.47
2022-12-23T20:34:39.074Z,5.60
2022-12-23T20:37:07.145Z,8.17
2022-12-23T20:39:34.677Z,6.37
2022-12-23T20:42:02.004Z,6.20
2022-12-23T20:44:35.038Z,6.70
2022-12-23T20:47:04.355Z,6.83
2022-12-23T20:49:31.785Z,8.20
2022-12-23T20:51:59.005Z,6.40
2022-12-23T20:54:32.254Z,6.77
2022-12-23T20:57:00.304Z,5.57
2022-12-23T20:59:27.434Z,5.80
2022-12-23T21:01:55.048Z,5.33
2022-12-23T21:04:22.739Z,6.63
2022-12-23T21:06:50.104Z,6.40
2022-12-23T21:09:17.641Z,5.77
2022-12-23T21:11:46.415Z,5.50
2022-12-23T21:14:14.393Z,6.83
2022-12-23T21:16:42.087Z,6.80
2022-12-23T21:19:10.412Z,7.07
2022-12-23T21:21:37.537Z,5.70
2022-12-23T21:24:05.256Z,6.13
2022-12-23T21:26:33.324Z,5.37
2022-12-23T21:29:01.274Z,6.07
2022-12-23T21:31:29.777Z,7.10
2022-12-23T21:33:57.155Z,5.60
2022-12-23T21:36:25.681Z,6.70
2022-12-23T21:38:53.262Z,6.57
2022-12-23T21:41:22.072Z,7.40
2022-12-23T21:43:49.597Z,7.47
2022-12-23T21:46:21.022Z,6.77
2022-12-23T21:48:48.819Z,7.20
2022-12-23T21:51:20.335Z,7.30
2022-12-23T21:53:48.717Z,6.17
2022-12-23T21:56:17.538Z,7.43
2022-12-23T21:58:45.225Z,7.43
2022-12-23T22:01:20.127Z,7.60
2022-12-23T22:03:49.221Z,6.90
2022-12-23T22:06:17.818Z,7.77
2022-12-23T22:08:45.140Z,7.10
2022-12-23T22:11:16.972Z,6.63
2022-12-23T22:13:44.518Z,6.00
2022-12-23T22:16:12.978Z,6.17
2022-12-23T22:18:40.326Z,5.23
2022-12-23T22:21:08.985Z,5.90
2022-12-23T22:23:36.810Z,5.80
2022-12-23T22:26:04.473Z,6.40
2022-12-23T22:28:32.860Z,6.65
2022-12-23T22:31:07.351Z,5.57
2022-12-23T22:33:35.048Z,5.50
2022-12-23T22:36:02.251Z,5.93
2022-12-23T22:38:29.447Z,5.03
2022-12-23T22:40:56.630Z,5.93
2022-12-23T22:43:24.001Z,5.90
2022-12-23T22:45:58.071Z,6.93
2022-12-23T22:48:26.258Z,4.70
2022-12-23T22:51:01.578Z,4.83
2022-12-23T22:53:30.016Z,5.77
2022-12-23T22:55:58.178Z,4.60
2022-12-23T22:58:25.374Z,4.97
2022-12-23T23:00:52.617Z,4.67
2022-12-23T23:03:19.945Z,5.50
2022-12-23T23:06:09.858Z,5.53
2022-12-23T23:08:37.096Z,4.73
2022-12-23T23:11:04.915Z,4.23
2022-12-23T23:13:33.496Z,5.23
2022-12-23T23:16:01.606Z,5.30
2022-12-23T23:18:29.353Z,5.57
2022-12-23T23:20:56.557Z,5.73
2022-12-23T23:23:23.826Z,5.70
2022-12-23T23:25:51.048Z,5.70
2022-12-23T23:28:18.470Z,6.03
2022-12-23T23:30:45.722Z,5.67
2022-12-23T23:33:13.164Z,6.50
2022-12-23T23:35:40.316Z,6.40
2022-12-23T23:38:07.516Z,6.10
2022-12-23T23:40:34.716Z,6.73
2022-12-23T23:43:01.919Z,7.07
2022-12-23T23:45:30.232Z,8.00
2022-12-23T23:47:57.506Z,5.80
2022-12-23T23:50:24.702Z,6.53
2022-12-23T23:52:52.052Z,6.13
2022-12-23T23:55:19.228Z,6.00
2022-12-23T23:57:46.363Z,7.73
